Time;durP1;ratioP1;P1;durP2;ratioP2;P2;SDS_P1;SDS_P2;PMS_P1;PMS_P2;Temp;Humidity;BMP_temperature;BMP_pressure;BME280_temperature;BME280_humidity;BME280_pressure;Samples;Min_cycle;Max_cycle;Signal;HPM_P1;HPM_P2
2023/11/03 09:40:35;;;;;;;3.97;1.37;;;;;;;10.71;88.49;96262.00;6296394;22;2093799;-86
2023/11/03 09:43:04;;;;;;;2.80;1.50;;;;;;;11.01;85.48;96260.56;6282447;22;40388;-89
2023/11/03 09:45:54;;;;;;;4.13;1.30;;;;;;;11.18;83.00;96267.56;6326628;22;41246;-88
2023/11/03 09:52:03;;;;;;;2.70;0.77;;;;;;;11.49;80.90;96286.34;6342720;22;43616;-84
2023/11/03 09:54:32;;;;;;;3.40;0.90;;;;;;;11.57;80.47;96286.34;6352790;22;40856;-86
2023/11/03 09:57:02;;;;;;;1.33;0.60;;;;;;;11.57;78.13;96273.09;6353076;22;43373;-87
2023/11/03 09:59:34;;;;;;;3.27;0.90;;;;;;;11.62;78.81;96262.81;6352628;22;44802;-84
2023/11/03 10:02:25;;;;;;;1.43;0.80;;;;;;;11.81;78.92;96281.06;6352792;22;40932;-87
2023/11/03 10:05:13;;;;;;;1.33;0.73;;;;;;;11.85;78.87;96266.50;6352977;22;41835;-84
2023/11/03 10:07:52;;;;;;;1.87;1.07;;;;;;;12.03;79.05;96265.47;6353098;22;42114;-84
2023/11/03 10:10:20;;;;;;;1.83;1.30;;;;;;;12.02;78.95;96250.56;6352504;22;44176;-84
2023/11/03 10:12:49;;;;;;;3.27;1.30;;;;;;;12.04;76.19;96259.16;6381014;22;41135;-83
2023/11/03 10:15:19;;;;;;;2.47;1.47;;;;;;;12.17;76.13;96275.41;6353853;22;40527;-87
2023/11/03 10:27:02;;;;;;;1.97;0.97;;;;;;;12.33;76.52;96262.09;6413815;22;40680;-81
2023/11/03 10:29:31;;;;;;;2.37;1.30;;;;;;;12.38;74.97;96262.41;6385602;22;42127;-81
2023/11/03 10:31:58;;;;;;;2.13;0.97;;;;;;;12.41;73.32;96264.72;6411771;22;44577;-85
2023/11/03 10:34:26;;;;;;;1.37;1.10;;;;;;;12.52;73.96;96259.03;6386203;22;44269;-84
2023/11/03 10:36:57;;;;;;;1.10;1.00;;;;;;;12.56;74.36;96249.75;6412018;22;40097;-86
2023/11/03 10:39:26;;;;;;;2.60;0.80;;;;;;;12.41;73.58;96211.66;6384235;22;40922;-86
2023/11/03 10:42:17;;;;;;;2.80;0.80;;;;;;;12.71;73.16;96257.00;6375837;22;42663;-84
2023/11/03 10:45:04;;;;;;;3.23;1.43;;;;;;;12.72;71.80;96264.78;6376885;22;42605;-84
2023/11/03 10:47:37;;;;;;;1.97;1.00;;;;;;;12.73;70.89;96266.44;6377229;22;40024;-83
2023/11/03 10:50:13;;;;;;;2.40;1.33;;;;;;;12.64;69.51;96250.69;6350611;22;41217;-83
2023/11/03 10:52:46;;;;;;;4.13;1.40;;;;;;;12.78;70.49;96265.91;6375932;22;41857;-86
2023/11/03 10:59:36;;;;;;;3.63;1.30;;;;;;;12.71;71.00;96225.13;6403763;22;41433;-84
2023/11/03 11:10:51;;;;;;;2.57;1.30;;;;;;;12.95;67.24;96238.28;6404410;22;40505;-88
2023/11/03 11:16:20;;;;;;;3.17;1.43;;;;;;;13.09;66.80;96245.53;6397281;22;43612;-86
2023/11/03 11:19:02;;;;;;;4.77;1.73;;;;;;;13.14;66.39;96261.78;6377038;22;41483;-84
2023/11/03 11:21:37;;;;;;;1.63;0.83;;;;;;;13.26;66.69;96273.66;6402419;22;39995;-85
2023/11/03 11:24:06;;;;;;;1.97;1.00;;;;;;;13.38;67.71;96267.94;6350372;22;41524;-86
2023/11/03 11:26:45;;;;;;;3.23;1.00;;;;;;;13.37;66.80;96253.00;6401209;22;43131;-84
2023/11/03 11:29:26;;;;;;;3.03;1.13;;;;;;;13.55;66.98;96272.16;6378164;22;42773;-86
2023/11/03 11:32:08;;;;;;;2.47;1.20;;;;;;;13.46;64.71;96276.72;6378242;22;38822;-82
2023/11/03 11:34:42;;;;;;;3.30;1.40;;;;;;;13.56;65.48;96281.78;6404240;22;42411;-85
2023/11/03 11:37:27;;;;;;;3.80;1.23;;;;;;;13.44;65.42;96269.91;6377747;22;42478;-90
2023/11/03 11:40:11;;;;;;;3.77;0.97;;;;;;;13.44;64.91;96277.88;6377701;22;41256;-93
2023/11/03 11:42:56;;;;;;;2.50;0.90;;;;;;;13.07;65.93;96225.44;6349277;22;38680;-92
2023/11/03 11:45:26;;;;;;;0.77;0.70;;;;;;;13.42;66.39;96294.00;6373715;22;41901;-91
2023/11/03 11:48:03;;;;;;;3.00;1.10;;;;;;;13.37;66.03;96275.09;6378770;22;43559;-91
2023/11/03 11:50:32;;;;;;;3.07;1.03;;;;;;;13.42;64.18;96303.81;6377405;22;41896;-91
2023/11/03 11:55:58;;;;;;;4.80;0.87;;;;;;;13.17;64.07;96266.75;6376214;22;41338;-93
2023/11/03 12:03:16;;;;;;;2.13;1.10;;;;;;;13.00;64.44;96238.56;6407744;22;43459;-91
2023/11/03 12:05:49;;;;;;;2.37;1.20;;;;;;;13.09;64.63;96250.00;6379195;22;39506;-90
2023/11/03 12:09:05;;;;;;;2.03;0.90;;;;;;;13.32;63.47;96292.56;6396277;22;41150;-90
2023/11/03 12:11:33;;;;;;;2.63;0.87;;;;;;;13.13;63.78;96281.34;6381347;22;44403;-91
2023/11/03 12:14:00;;;;;;;2.33;0.90;;;;;;;13.09;63.68;96288.03;6379720;22;41302;-92
2023/11/03 12:16:29;;;;;;;2.87;1.07;;;;;;;12.87;63.76;96272.84;6377687;22;39967;-90
2023/11/03 12:18:57;;;;;;;1.33;1.07;;;;;;;12.84;64.27;96267.91;6379084;22;40911;-93
2023/11/03 12:21:26;;;;;;;2.73;1.10;;;;;;;12.70;63.34;96250.84;6373606;22;43206;-86
2023/11/03 12:24:03;;;;;;;1.90;0.87;;;;;;;13.11;64.32;96301.09;6380346;22;42317;-83
2023/11/03 12:26:31;;;;;;;2.93;1.30;;;;;;;13.05;63.16;96289.38;6378397;22;40621;-82
2023/11/03 12:29:28;;;;;;;3.73;1.30;;;;;;;13.14;63.16;96306.94;6404637;22;41951;-87
2023/11/03 12:31:57;;;;;;;1.73;1.10;;;;;;;12.94;62.53;96295.91;6376971;22;45836;-85
2023/11/03 12:34:25;;;;;;;1.47;1.17;;;;;;;12.97;62.68;96315.97;6405451;22;42832;-82
2023/11/03 12:36:57;;;;;;;2.67;1.20;;;;;;;13.02;63.97;96313.63;6378546;22;40951;-84
2023/11/03 12:39:25;;;;;;;2.03;1.10;;;;;;;12.99;63.39;96297.19;6405813;22;42245;-88
2023/11/03 12:42:02;;;;;;;3.47;1.27;;;;;;;12.95;62.86;96304.69;6375890;22;43337;-87
2023/11/03 12:44:31;;;;;;;1.87;1.20;;;;;;;13.02;63.26;96299.50;6377069;22;42518;-87
2023/11/03 12:47:05;;;;;;;5.70;1.23;;;;;;;13.10;62.77;96294.16;6378103;22;39876;-84
2023/11/03 12:49:32;;;;;;;5.90;1.47;;;;;;;13.18;61.21;96308.25;6376730;22;43294;-84
2023/11/03 12:52:16;;;;;;;5.40;0.97;;;;;;;13.29;61.54;96299.88;6377063;22;43054;-90
2023/11/03 12:54:43;;;;;;;2.10;0.90;;;;;;;13.43;60.21;96308.13;6403190;22;41775;-86
2023/11/03 12:57:14;;;;;;;2.60;0.77;;;;;;;13.60;60.31;96322.94;6377343;22;39076;-84
2023/11/03 12:59:44;;;;;;;2.60;1.03;;;;;;;13.57;60.03;96315.34;6377105;22;42026;-85
2023/11/03 13:02:11;;;;;;;1.50;0.67;;;;;;;13.52;59.66;96312.38;6403245;22;44959;-86
2023/11/03 13:04:40;;;;;;;3.77;0.80;;;;;;;13.63;60.00;96312.78;6375983;22;42154;-86
2023/11/03 13:07:11;;;;;;;2.67;1.00;;;;;;;13.77;58.56;96329.81;6373232;22;39465;-89
2023/11/03 13:09:40;;;;;;;4.30;1.17;;;;;;;13.79;58.57;96335.78;6403255;22;42112;-82
2023/11/03 13:12:12;;;;;;;3.13;1.10;;;;;;;13.84;59.16;96320.13;6352019;22;42699;-82
2023/11/03 13:14:40;;;;;;;2.20;1.10;;;;;;;14.06;57.61;96333.59;6377426;22;41007;-83
2023/11/03 13:17:10;;;;;;;2.40;1.40;;;;;;;14.21;57.02;96339.78;6404422;22;40309;-84
2023/11/03 13:19:47;;;;;;;3.50;1.10;;;;;;;14.19;57.37;96313.34;6380139;22;41084;-86
2023/11/03 13:22:16;;;;;;;1.67;0.90;;;;;;;14.43;56.80;96330.97;6377783;22;43352;-87
2023/11/03 13:24:45;;;;;;;4.17;1.60;;;;;;;14.52;56.10;96345.84;6403207;22;42280;-85
2023/11/03 13:27:12;;;;;;;1.53;1.10;;;;;;;14.52;56.79;96321.88;6378049;22;38643;-87
2023/11/03 13:29:41;;;;;;;1.37;1.00;;;;;;;14.57;56.48;96340.81;6405267;22;41934;-85
2023/11/03 13:32:18;;;;;;;2.57;1.10;;;;;;;14.58;54.85;96358.44;6379730;22;43281;-86
2023/11/03 13:34:46;;;;;;;2.90;1.10;;;;;;;14.49;55.58;96356.84;6375640;22;40970;-88
2023/11/03 13:37:13;;;;;;;2.13;1.00;;;;;;;14.23;56.20;96324.44;6376704;22;40552;-89
2023/11/03 13:39:42;;;;;;;1.53;1.20;;;;;;;14.36;55.74;96359.28;6404325;22;43146;-88
2023/11/03 13:42:10;;;;;;;1.30;1.00;;;;;;;14.28;56.46;96338.88;6402293;22;42886;-87
2023/11/03 13:44:38;;;;;;;2.50;1.30;;;;;;;14.37;56.44;96359.09;6375009;22;43858;-86
2023/11/03 13:47:06;;;;;;;2.70;1.30;;;;;;;14.19;55.38;96350.63;6404144;22;40521;-88
2023/11/03 13:49:38;;;;;;;3.23;1.30;;;;;;;14.07;55.74;96348.56;6402738;22;42173;-87
2023/11/03 13:52:07;;;;;;;2.77;1.20;;;;;;;13.98;56.35;96356.59;6376400;22;41449;-87
2023/11/03 13:54:37;;;;;;;2.60;1.30;;;;;;;13.85;56.80;96351.03;6400744;22;42922;-88
2023/11/03 13:57:09;;;;;;;3.97;0.87;;;;;;;13.75;57.67;96355.75;6403144;22;38949;-86
2023/11/03 13:59:36;;;;;;;2.40;1.20;;;;;;;13.55;58.37;96327.97;6375959;22;41017;-87
2023/11/03 14:02:04;;;;;;;2.13;1.03;;;;;;;13.62;58.96;96342.22;6376153;22;43349;-86
2023/11/03 14:04:31;;;;;;;4.53;1.20;;;;;;;13.64;58.98;96345.53;6374910;22;43318;-86
2023/11/03 14:06:59;;;;;;;2.23;1.00;;;;;;;13.67;58.20;96366.47;6376108;22;38963;-87
2023/11/03 14:09:27;;;;;;;2.40;1.27;;;;;;;13.52;58.43;96347.75;6375786;22;40861;-85
2023/11/03 14:11:55;;;;;;;3.33;1.23;;;;;;;13.42;58.75;96344.50;6376212;22;42311;-90
2023/11/03 14:14:24;;;;;;;2.33;1.10;;;;;;;13.56;58.77;96372.19;6377565;22;42800;-88
2023/11/03 14:16:55;;;;;;;1.57;1.03;;;;;;;13.32;58.74;96348.38;6379028;22;38967;-89
2023/11/03 14:19:25;;;;;;;2.50;1.07;;;;;;;13.39;58.65;96362.63;6379384;22;40511;-90
2023/11/03 14:21:52;;;;;;;2.73;1.00;;;;;;;13.26;59.18;96348.06;6378849;22;43318;-91
2023/11/03 14:24:24;;;;;;;2.60;1.33;;;;;;;13.37;59.32;96372.59;6379175;22;42571;-90
2023/11/03 14:26:51;;;;;;;3.67;1.17;;;;;;;13.36;58.29;96394.88;6376785;22;40251;-92
2023/11/03 14:29:26;;;;;;;5.07;1.10;;;;;;;13.21;58.62;96377.00;6380153;22;40746;-86
2023/11/03 14:31:56;;;;;;;1.90;0.90;;;;;;;13.19;58.90;96379.00;6379481;22;43471;-86
2023/11/03 14:34:26;;;;;;;3.50;1.07;;;;;;;13.15;58.80;96377.69;6379845;22;41328;-88
2023/11/03 14:37:06;;;;;;;1.70;1.50;;;;;;;13.16;59.54;96384.66;6405229;22;40010;-88
2023/11/03 14:39:35;;;;;;;1.53;1.20;;;;;;;13.05;59.98;96374.38;6378384;22;42175;-86
2023/11/03 14:42:02;;;;;;;3.27;1.10;;;;;;;13.04;59.75;96386.00;6376240;22;42855;-86
2023/11/03 14:44:36;;;;;;;2.93;1.50;;;;;;;13.03;59.44;96392.31;6378003;22;42359;-89
2023/11/03 14:47:04;;;;;;;5.43;1.20;;;;;;;12.92;59.93;96379.41;6403917;22;40987;-86
2023/11/03 14:49:38;;;;;;;4.93;1.43;;;;;;;12.84;60.34;96374.13;6377226;22;40604;-86
2023/11/03 14:52:08;;;;;;;2.40;1.20;;;;;;;12.84;60.58;96372.31;6376938;22;42524;-86
2023/11/03 14:54:36;;;;;;;1.43;1.10;;;;;;;12.87;60.53;96387.03;6377205;22;42071;-83
2023/11/03 14:57:04;;;;;;;4.23;1.37;;;;;;;12.76;60.65;96376.78;6376377;22;39788;-82
2023/11/03 14:59:34;;;;;;;2.83;1.20;;;;;;;12.73;60.55;96385.13;6390411;22;40784;-83
2023/11/03 15:02:06;;;;;;;3.63;1.53;;;;;;;12.67;60.57;96383.13;6391407;22;44395;-82
2023/11/03 15:04:33;;;;;;;2.90;1.30;;;;;;;12.70;61.36;96399.53;6377230;22;43431;-86
2023/11/03 15:07:01;;;;;;;1.73;1.03;;;;;;;12.62;61.69;96399.53;6404090;22;41036;-86
2023/11/03 15:09:31;;;;;;;2.20;1.53;;;;;;;12.57;61.83;96396.59;6404297;22;42853;-88
2023/11/03 15:11:59;;;;;;;3.13;1.90;;;;;;;12.49;62.19;96389.44;6377540;22;42172;-85
2023/11/03 15:14:26;;;;;;;4.47;1.73;;;;;;;12.54;62.79;96400.41;6378740;22;42830;-86
2023/11/03 15:16:54;;;;;;;4.80;1.97;;;;;;;12.54;62.38;96405.69;6377675;22;39182;-86
2023/11/03 15:19:24;;;;;;;4.53;1.67;;;;;;;12.42;62.75;96393.78;6405370;22;42402;-85
2023/11/03 15:21:52;;;;;;;3.77;2.00;;;;;;;12.40;63.44;96382.50;6378455;22;42101;-91
2023/11/03 15:24:19;;;;;;;6.53;2.57;;;;;;;12.41;63.16;96402.72;6376466;22;42910;-83
2023/11/03 15:26:47;;;;;;;4.73;2.13;;;;;;;12.35;63.07;96405.25;6402871;22;38907;-84
2023/11/03 15:29:14;;;;;;;3.40;1.87;;;;;;;12.20;63.44;96397.09;6404046;22;42279;-82
2023/11/03 15:31:42;;;;;;;3.87;1.80;;;;;;;12.16;63.71;96403.72;6376421;22;42855;-83
2023/11/03 15:34:11;;;;;;;2.93;1.70;;;;;;;12.01;64.52;96394.75;6377210;22;43827;-86
2023/11/03 15:36:40;;;;;;;3.73;1.60;;;;;;;11.96;64.59;96394.44;6403005;22;40802;-88
2023/11/03 15:39:20;;;;;;;2.83;1.50;;;;;;;11.99;64.90;96407.38;6376984;22;43255;-84
2023/11/03 15:41:48;;;;;;;2.53;1.70;;;;;;;11.93;65.19;96406.19;6376566;22;44666;-85
2023/11/03 15:44:17;;;;;;;3.97;1.93;;;;;;;11.88;65.34;96408.50;6379997;22;42003;-85
2023/11/03 15:46:47;;;;;;;3.67;2.00;;;;;;;11.75;65.75;96393.06;6406077;22;39368;-86
2023/11/03 15:49:15;;;;;;;4.83;2.13;;;;;;;11.69;65.73;96399.00;6408724;22;42527;-84
2023/11/03 15:51:45;;;;;;;3.30;1.93;;;;;;;11.64;66.20;96393.34;6380911;22;41954;-82
2023/11/03 15:54:12;;;;;;;4.87;2.03;;;;;;;11.66;66.41;96407.28;6407749;22;43057;-82
2023/11/03 15:56:40;;;;;;;2.40;1.30;;;;;;;11.52;66.83;96394.66;6381351;22;38908;-83
2023/11/03 15:59:07;;;;;;;8.23;1.63;;;;;;;11.58;67.03;96411.75;6376402;22;40912;-83
2023/11/03 16:01:38;;;;;;;1.70;1.37;;;;;;;11.53;67.18;96417.50;6377803;22;42925;-84
2023/11/03 16:04:05;;;;;;;6.33;2.20;;;;;;;11.38;67.67;96400.56;6403666;22;42275;-84
2023/11/03 16:06:33;;;;;;;3.00;1.77;;;;;;;11.37;67.82;96410.38;6404294;22;39392;-83
2023/11/03 16:09:02;;;;;;;3.07;1.90;;;;;;;11.34;68.53;96417.81;6403316;22;40965;-84
2023/11/03 16:11:30;;;;;;;4.43;1.67;;;;;;;11.24;68.60;96419.75;6376232;22;42147;-82
2023/11/03 16:13:57;;;;;;;2.50;1.47;;;;;;;11.04;69.07;96408.56;6405221;22;41016;-82
2023/11/03 16:16:27;;;;;;;4.60;1.80;;;;;;;10.86;69.40;96395.41;6378844;22;40139;-83
2023/11/03 16:18:55;;;;;;;2.97;1.83;;;;;;;10.85;69.43;96404.34;6405529;22;42930;-81
2023/11/03 16:21:23;;;;;;;4.33;1.90;;;;;;;10.87;70.35;96426.19;6378164;22;41822;-87
2023/11/03 16:23:50;;;;;;;4.20;1.73;;;;;;;10.79;70.33;96426.13;6378079;22;42582;-85
2023/11/03 16:26:22;;;;;;;4.40;1.80;;;;;;;10.61;70.97;96410.31;6405245;22;40730;-90
2023/11/03 16:28:50;;;;;;;1.63;0.90;;;;;;;10.56;71.47;96411.75;6379195;22;42014;-85
2023/11/03 16:31:18;;;;;;;5.77;1.60;;;;;;;10.53;71.14;96422.66;6405852;22;42628;-83
2023/11/03 16:33:46;;;;;;;2.87;1.50;;;;;;;10.54;71.64;96434.91;6378607;22;42309;-83
2023/11/03 16:36:18;;;;;;;6.67;2.13;;;;;;;10.48;71.39;96433.72;6377879;22;38971;-85
2023/11/03 16:38:47;;;;;;;5.30;1.50;;;;;;;10.10;71.75;96397.84;6375684;22;42277;-88
2023/11/03 16:41:17;;;;;;;2.53;1.80;;;;;;;10.37;71.68;96434.78;6403125;22;42792;-86
2023/11/03 16:43:46;;;;;;;5.10;1.70;;;;;;;10.31;71.75;96448.63;6377232;22;41447;-85
2023/11/03 16:46:14;;;;;;;2.13;1.33;;;;;;;10.24;72.22;96449.41;6376595;22;38873;-85
2023/11/03 16:48:41;;;;;;;3.83;1.90;;;;;;;10.20;72.75;96451.50;6403670;22;43286;-82
2023/11/03 16:51:09;;;;;;;2.10;1.23;;;;;;;10.07;72.83;96440.44;6377510;22;41398;-91
2023/11/03 16:53:37;;;;;;;2.67;1.43;;;;;;;9.96;73.11;96438.03;6378019;22;42025;-89
2023/11/03 16:56:06;;;;;;;1.93;1.27;;;;;;;10.09;73.47;96464.94;6376891;22;39308;-91
2023/11/03 16:58:33;;;;;;;2.83;1.80;;;;;;;9.98;73.25;96459.88;6377940;22;41964;-90
2023/11/03 17:01:02;;;;;;;3.27;1.80;;;;;;;9.94;73.42;96450.56;6377215;22;42899;-87
2023/11/03 17:03:29;;;;;;;3.40;1.57;;;;;;;9.95;73.77;96457.53;6377600;22;41299;-91
2023/11/03 17:05:57;;;;;;;3.93;1.80;;;;;;;9.90;73.73;96455.31;6373321;22;39044;-88
2023/11/03 17:08:27;;;;;;;2.47;1.53;;;;;;;9.99;74.57;96486.16;6376483;22;42108;-88
2023/11/03 17:10:55;;;;;;;5.17;1.53;;;;;;;9.94;74.92;96477.00;6376964;22;41861;-88
2023/11/03 17:13:24;;;;;;;3.63;1.90;;;;;;;9.96;74.74;96485.63;6376138;22;41309;-90
2023/11/03 17:15:53;;;;;;;3.60;1.80;;;;;;;9.73;75.33;96454.34;6377227;22;39171;-90
2023/11/03 17:18:22;;;;;;;3.03;1.50;;;;;;;9.93;75.78;96481.47;6380379;22;41012;-88
2023/11/03 17:20:50;;;;;;;2.53;1.50;;;;;;;9.91;76.11;96483.41;6378547;22;43178;-91
2023/11/03 17:23:17;;;;;;;2.87;1.30;;;;;;;9.81;75.97;96468.59;6380023;22;42078;-93
2023/11/03 17:25:45;;;;;;;2.20;1.50;;;;;;;9.78;76.17;96471.53;6378418;22;39006;-92
2023/11/03 17:28:13;;;;;;;6.00;2.30;;;;;;;9.77;76.72;96469.91;6379366;22;41180;-89
2023/11/03 17:30:41;;;;;;;3.60;2.33;;;;;;;9.73;77.15;96466.72;6378627;22;42103;-89
2023/11/03 17:33:10;;;;;;;4.03;1.90;;;;;;;9.58;77.64;96439.97;6378673;22;41600;-91
2023/11/03 17:35:39;;;;;;;6.13;2.23;;;;;;;9.77;78.11;96475.19;6376753;22;39823;-89
2023/11/03 17:38:07;;;;;;;4.10;2.37;;;;;;;9.61;78.20;96455.53;6377426;22;40727;-91
2023/11/03 17:40:36;;;;;;;3.87;2.13;;;;;;;9.75;79.34;96471.84;6375114;22;44415;-88
2023/11/03 17:43:03;;;;;;;3.33;1.87;;;;;;;9.67;78.88;96460.19;6376531;22;41476;-87
2023/11/03 17:45:32;;;;;;;1.57;1.47;;;;;;;9.62;79.55;96462.47;6376507;22;39087;-89
2023/11/03 17:47:59;;;;;;;4.47;1.80;;;;;;;9.71;80.29;96482.72;6377203;22;41860;-89
2023/11/03 17:50:27;;;;;;;4.03;2.03;;;;;;;9.68;80.25;96476.88;6381307;22;41855;-88
2023/11/03 17:52:56;;;;;;;5.23;1.73;;;;;;;9.48;80.48;96448.94;6386167;22;41330;-86
2023/11/03 17:55:24;;;;;;;1.97;1.43;;;;;;;9.61;80.74;96471.38;6399401;22;38726;-88
2023/11/03 17:57:54;;;;;;;1.73;1.50;;;;;;;9.67;80.33;96486.63;6384623;22;41930;-89
2023/11/03 18:00:24;;;;;;;3.80;2.30;;;;;;;9.64;80.85;96489.56;6376714;22;41758;-92
2023/11/03 18:02:52;;;;;;;6.47;2.17;;;;;;;9.52;80.94;96471.44;6377076;22;41472;-88
2023/11/03 18:05:21;;;;;;;4.23;1.63;;;;;;;9.37;80.47;96457.91;6377941;22;38743;-87
2023/11/03 18:07:48;;;;;;;3.87;1.80;;;;;;;9.61;80.47;96497.81;6378420;22;40906;-89
2023/11/03 18:10:17;;;;;;;2.60;2.00;;;;;;;9.48;81.20;96480.63;6378382;22;42678;-91
2023/11/03 18:12:45;;;;;;;4.30;2.00;;;;;;;9.54;80.82;96501.16;6403927;22;43200;-87
2023/11/03 18:15:13;;;;;;;3.13;2.00;;;;;;;9.48;80.82;96486.75;6378669;22;38899;-90
2023/11/03 18:17:41;;;;;;;2.07;1.67;;;;;;;9.58;81.05;96505.19;6380106;22;42008;-89
2023/11/03 18:20:12;;;;;;;3.53;1.93;;;;;;;9.43;81.25;96485.50;6379586;22;41770;-89
2023/11/03 18:22:40;;;;;;;2.80;2.07;;;;;;;9.33;81.08;96473.19;6406275;22;41249;-88
2023/11/03 18:25:09;;;;;;;4.80;2.70;;;;;;;9.43;81.11;96502.19;6379165;22;39003;-90
2023/11/03 18:27:39;;;;;;;3.27;1.77;;;;;;;9.51;81.50;96517.34;6377777;22;40920;-91
2023/11/03 18:30:09;;;;;;;4.00;2.17;;;;;;;9.45;81.23;96518.72;6379605;22;42878;-88
